createdAt,value
2019-01-12T00:00:38.912Z,99558.02
2019-01-12T00:03:27.146Z,99737.98
2019-01-12T00:06:07.030Z,99725.00
2019-01-12T00:08:47.131Z,99735.23
2019-01-12T00:11:33.600Z,99455.03
2019-01-12T00:14:13.730Z,99531.51
2019-01-12T00:16:59.919Z,99729.82
2019-01-12T00:19:40.224Z,99638.66
2019-01-12T00:22:26.450Z,99552.59
2019-01-12T00:25:06.269Z,99446.58
2019-01-12T00:27:46.448Z,99727.39
2019-01-12T00:30:32.943Z,99722.62
2019-01-12T00:33:12.771Z,99742.62
2019-01-12T00:35:59.279Z,99734.06
2019-01-12T00:38:38.657Z,99729.36
2019-01-12T00:41:19.072Z,99746.79
2019-01-12T00:44:05.543Z,99744.92
2019-01-12T00:46:44.874Z,99670.45
2019-01-12T00:49:25.286Z,99750.60
2019-01-12T00:52:11.494Z,99746.30
2019-01-12T00:54:51.078Z,99771.59
2019-01-12T00:57:37.582Z,99755.49
2019-01-12T01:00:18.117Z,99757.89
2019-01-12T01:03:04.314Z,99760.79
2019-01-12T01:05:44.190Z,99754.68
2019-01-12T01:08:30.696Z,99761.45
2019-01-12T01:11:10.951Z,99768.22
2019-01-12T01:13:57.145Z,99772.50
2019-01-12T01:16:36.938Z,99749.92
2019-01-12T01:19:23.370Z,99757.45
2019-01-12T01:22:03.331Z,99777.80
2019-01-12T01:24:49.798Z,99592.52
2019-01-12T01:27:30.503Z,99690.61
2019-01-12T01:30:30.691Z,99782.56
2019-01-12T01:33:17.138Z,99763.31
2019-01-12T01:35:57.071Z,99786.30
2019-01-12T01:42:11.358Z,99713.25
2019-01-12T01:44:51.747Z,99570.92
2019-01-12T01:47:31.615Z,99611.36
2019-01-12T01:50:12.820Z,99584.00
2019-01-12T01:52:59.032Z,99562.73
2019-01-12T01:55:38.278Z,99810.13
2019-01-12T01:58:24.462Z,99568.23
2019-01-12T02:01:03.843Z,99803.33
2019-01-12T02:03:50.059Z,99804.61
2019-01-12T02:06:30.889Z,99819.11
2019-01-12T02:09:17.121Z,99807.74
2019-01-12T02:11:57.222Z,99811.11
2019-01-12T02:14:43.706Z,99729.09
2019-01-12T02:17:24.470Z,99775.16
2019-01-12T02:20:11.085Z,99801.89
2019-01-12T02:22:50.483Z,99811.97
2019-01-12T02:25:37.062Z,99539.42
2019-01-12T02:28:17.458Z,99641.63
2019-01-12T02:31:04.005Z,99821.20
2019-01-12T02:33:43.495Z,99812.11
2019-01-12T02:36:30.001Z,99814.62
2019-01-12T02:39:16.110Z,99485.70
2019-01-12T02:42:02.616Z,99823.20
2019-01-12T02:44:43.578Z,99811.75
2019-01-12T02:47:30.071Z,99577.13
2019-01-12T02:50:10.263Z,99819.31
2019-01-12T02:52:56.501Z,99814.09
2019-01-12T02:55:36.721Z,99823.39
2019-01-12T02:58:23.193Z,99713.23
2019-01-12T03:01:04.321Z,99821.30
2019-01-12T03:03:50.519Z,99751.78
2019-01-12T03:06:31.495Z,99827.84
2019-01-12T03:09:17.970Z,99823.08
2019-01-12T03:11:58.771Z,99818.34
2019-01-12T03:14:44.997Z,99825.30
2019-01-12T03:17:25.216Z,99811.73
2019-01-12T03:23:05.767Z,99825.25
2019-01-12T03:25:45.635Z,99813.22
2019-01-12T03:28:25.870Z,99814.67
2019-01-12T03:31:12.066Z,99817.96
2019-01-12T03:33:53.103Z,99817.15
2019-01-12T03:36:34.082Z,99815.14
2019-01-12T03:39:20.393Z,99797.13
2019-01-12T03:42:01.599Z,99755.31
2019-01-12T03:44:47.825Z,99842.41
2019-01-12T03:47:27.781Z,99816.70
2019-01-12T03:50:14.898Z,99814.30
2019-01-12T03:52:55.333Z,99804.48
2019-01-12T03:55:41.544Z,99816.52
2019-01-12T03:58:22.655Z,99817.02
2019-01-12T04:01:08.857Z,99820.20
2019-01-12T04:03:49.301Z,99726.63
2019-01-12T04:06:35.489Z,99626.28
2019-01-12T04:09:16.862Z,99811.16
2019-01-12T04:11:57.865Z,99799.19
2019-01-12T04:14:44.094Z,99817.55
2019-01-12T04:17:25.193Z,99730.30
2019-01-12T04:23:11.756Z,99575.13
2019-01-12T04:25:53.595Z,99805.64
2019-01-12T04:28:34.221Z,99798.88
2019-01-12T04:31:15.061Z,99808.84
2019-01-12T04:33:55.154Z,99794.61
2019-01-12T04:36:21.491Z,99801.44
2019-01-12T04:38:48.060Z,99799.55
2019-01-12T04:41:34.560Z,99791.76
2019-01-12T04:44:01.173Z,99813.39
2019-01-12T04:46:27.742Z,99798.13
2019-01-12T04:48:54.316Z,99791.66
2019-01-12T04:51:20.878Z,99799.40
2019-01-12T04:53:47.925Z,99796.91
2019-01-12T04:56:35.386Z,99788.91
2019-01-12T04:59:03.197Z,99542.01
2019-01-12T05:01:49.650Z,99794.81
2019-01-12T05:04:29.015Z,99790.42
2019-01-12T05:07:15.229Z,99644.54
2019-01-12T05:09:55.310Z,99684.69
2019-01-12T05:12:35.560Z,99797.50
2019-01-12T05:15:21.757Z,99710.02
2019-01-12T05:18:03.924Z,99798.30
2019-01-12T05:20:50.112Z,99648.25
2019-01-12T05:23:29.831Z,99797.94
2019-01-12T05:26:16.250Z,99797.47
2019-01-12T05:29:02.768Z,99539.83
2019-01-12T05:31:43.430Z,99802.61
2019-01-12T05:34:29.872Z,99796.63
2019-01-12T05:37:10.664Z,99805.46
2019-01-12T05:39:57.116Z,99805.48
2019-01-12T05:42:37.864Z,99714.56
2019-01-12T05:45:17.687Z,99801.45
2019-01-12T05:47:57.782Z,99811.37
2019-01-12T05:50:43.990Z,99655.84
2019-01-12T05:53:23.963Z,99822.59
2019-01-12T05:56:10.276Z,99815.53
2019-01-12T05:58:50.722Z,99811.37
2019-01-12T06:01:36.918Z,99824.94
2019-01-12T06:04:16.234Z,99821.94
2019-01-12T06:07:02.451Z,99820.56
2019-01-12T06:09:42.532Z,99821.05
2019-01-12T06:12:28.983Z,99821.09
2019-01-12T06:15:08.992Z,99654.94
2019-01-12T06:17:55.203Z,99832.41
2019-01-12T06:20:34.947Z,99534.34
2019-01-12T06:23:21.165Z,99642.05
2019-01-12T06:26:03.954Z,99582.54
2019-01-12T06:28:42.407Z,99843.31
2019-01-12T06:31:22.558Z,99837.95
2019-01-12T06:34:02.717Z,99814.15
2019-01-12T06:36:49.185Z,99818.00
2019-01-12T06:39:28.889Z,99828.58
2019-01-12T06:42:15.097Z,99822.17
2019-01-12T06:44:56.536Z,99817.87
2019-01-12T06:47:43.072Z,99815.27
2019-01-12T06:50:22.620Z,99817.09
2019-01-12T06:53:08.825Z,99839.27
2019-01-12T06:55:48.351Z,99819.56
2019-01-12T06:58:34.858Z,99836.08
2019-01-12T07:01:14.807Z,99839.02
2019-01-12T07:04:01.312Z,99839.51
2019-01-12T07:06:40.830Z,99829.23
2019-01-12T07:09:27.258Z,99825.52
2019-01-12T07:12:07.369Z,99831.17
2019-01-12T07:14:47.641Z,99827.20
2019-01-12T07:17:33.948Z,99823.12
2019-01-12T07:20:14.471Z,99578.52
2019-01-12T07:23:00.935Z,99730.17
2019-01-12T07:25:41.991Z,99847.89
2019-01-12T07:28:28.531Z,99839.59
2019-01-12T07:31:09.321Z,99843.97
2019-01-12T07:33:55.764Z,99848.67
2019-01-12T07:36:35.670Z,99639.81
2019-01-12T07:39:22.019Z,99841.58
2019-01-12T07:42:02.886Z,99683.83
2019-01-12T07:44:49.079Z,99613.88
2019-01-12T07:47:28.807Z,99860.88
2019-01-12T07:50:14.993Z,99798.86
2019-01-12T07:52:54.317Z,99773.47
2019-01-12T07:55:33.709Z,99778.13
2019-01-12T07:58:14.755Z,99622.56
2019-01-12T08:00:54.999Z,99691.75
2019-01-12T08:03:41.843Z,99872.53
2019-01-12T08:06:22.206Z,99848.78
2019-01-12T08:09:08.399Z,99859.02
2019-01-12T08:11:48.270Z,99621.09
2019-01-12T08:14:34.469Z,99854.03
2019-01-12T08:17:14.466Z,99707.90
2019-01-12T08:20:00.927Z,99650.49
2019-01-12T08:22:40.597Z,99857.97
2019-01-12T08:25:26.824Z,99858.45
2019-01-12T08:28:08.606Z,99842.74
2019-01-12T08:30:49.258Z,99686.33
2019-01-12T08:33:35.725Z,99708.25
2019-01-12T08:36:16.360Z,99750.41
2019-01-12T08:39:24.628Z,99831.56
2019-01-12T08:42:05.682Z,99645.99
2019-01-12T08:44:52.184Z,99818.65
2019-01-12T08:47:33.079Z,99825.13
2019-01-12T08:50:19.532Z,99819.28
2019-01-12T08:53:00.850Z,99822.16
2019-01-12T08:55:47.270Z,99584.40
2019-01-12T08:58:26.983Z,99566.58
2019-01-12T09:01:13.446Z,99657.84
2019-01-12T09:03:53.168Z,99585.24
2019-01-12T09:06:39.380Z,99551.55
2019-01-12T09:09:19.590Z,99817.13
2019-01-12T09:12:06.043Z,99826.95
2019-01-12T09:14:48.738Z,99657.59
2019-01-12T09:17:35.025Z,99684.89
2019-01-12T09:20:14.956Z,99645.09
2019-01-12T09:23:01.416Z,99813.73
2019-01-12T09:25:41.392Z,99723.33
2019-01-12T09:28:27.587Z,99796.45
2019-01-12T09:31:09.159Z,99796.86
2019-01-12T09:33:55.624Z,99726.32
2019-01-12T09:36:37.103Z,99800.27
2019-01-12T09:39:23.305Z,99790.82
2019-01-12T09:42:03.915Z,99776.52
2019-01-12T09:44:50.350Z,99771.96
2019-01-12T09:47:31.251Z,99789.45
2019-01-12T09:50:18.236Z,99764.05
2019-01-12T09:52:58.867Z,99776.41
2019-01-12T09:55:38.849Z,99680.84
2019-01-12T09:58:25.350Z,99682.14
2019-01-12T10:01:05.941Z,99540.00
2019-01-12T10:03:46.024Z,99746.89
2019-01-12T10:06:32.486Z,99755.25
2019-01-12T10:09:12.911Z,99661.63
2019-01-12T10:11:59.422Z,99531.88
2019-01-12T10:14:38.780Z,99719.50
2019-01-12T10:17:25.257Z,99453.22
2019-01-12T10:20:07.331Z,99471.42
2019-01-12T10:22:53.667Z,99631.95
2019-01-12T10:25:34.756Z,99714.17
2019-01-12T10:28:17.102Z,99723.49
2019-01-12T10:31:03.292Z,99538.47
2019-01-12T10:33:44.430Z,99705.33
2019-01-12T10:36:30.886Z,99720.59
2019-01-12T10:39:17.775Z,99456.92
2019-01-12T10:41:59.643Z,99709.67
2019-01-12T10:44:40.145Z,99725.30
2019-01-12T10:47:19.990Z,99718.44
2019-01-12T10:50:28.216Z,99713.08
2019-01-12T10:53:08.525Z,99698.75
2019-01-12T10:55:54.724Z,99692.16
2019-01-12T10:58:35.598Z,99713.33
2019-01-12T11:01:22.077Z,99540.25
2019-01-12T11:04:02.556Z,99699.30
2019-01-12T11:06:48.771Z,99693.89
2019-01-12T11:09:29.568Z,99408.38
2019-01-12T11:12:15.954Z,99682.92
2019-01-12T11:14:55.408Z,99664.61
2019-01-12T11:17:41.641Z,99671.20
2019-01-12T11:20:20.978Z,99652.10
2019-01-12T11:23:07.609Z,99656.97
2019-01-12T11:25:48.004Z,99668.39
2019-01-12T11:28:28.025Z,99669.12
2019-01-12T11:31:08.073Z,99645.84
2019-01-12T11:33:54.287Z,99658.68
2019-01-12T11:36:34.301Z,99463.55
2019-01-12T11:39:18.734Z,99654.73
2019-01-12T11:42:05.222Z,99538.67
2019-01-12T11:44:44.969Z,99623.30
2019-01-12T11:47:31.481Z,99425.31
2019-01-12T11:50:13.066Z,99386.62
2019-01-12T11:53:20.254Z,99622.41
2019-01-12T11:55:59.662Z,99606.30
2019-01-12T11:58:45.855Z,99544.52
2019-01-12T12:01:25.983Z,99596.87
2019-01-12T12:04:12.577Z,99534.71
2019-01-12T12:06:53.462Z,99613.02
2019-01-12T12:09:39.933Z,99585.28
2019-01-12T12:12:19.778Z,99600.89
2019-01-12T12:15:25.845Z,99575.84
2019-01-12T12:18:06.029Z,99571.09
2019-01-12T12:20:52.537Z,99308.58
2019-01-12T12:23:32.691Z,99469.48
2019-01-12T12:26:19.053Z,99388.34
2019-01-12T12:28:59.884Z,99550.12
2019-01-12T12:31:39.694Z,99544.91
2019-01-12T12:34:26.177Z,99539.51
2019-01-12T12:37:06.305Z,99517.64
2019-01-12T12:39:52.496Z,99521.98
2019-01-12T12:42:31.920Z,99287.27
2019-01-12T12:45:31.667Z,99529.65
2019-01-12T12:48:18.144Z,99356.64
2019-01-12T12:50:58.753Z,99515.76
2019-01-12T12:53:44.968Z,99505.48
2019-01-12T12:56:24.608Z,99497.70
2019-01-12T12:59:10.819Z,99486.88
2019-01-12T13:01:50.508Z,99493.80
2019-01-12T13:04:36.810Z,99495.47
2019-01-12T13:07:16.963Z,99492.59
2019-01-12T13:10:25.281Z,99457.86
2019-01-12T13:13:25.531Z,99252.52
2019-01-12T13:16:11.715Z,99493.05
2019-01-12T13:18:51.615Z,99467.63
2019-01-12T13:21:38.095Z,99472.41
2019-01-12T13:24:17.574Z,99308.03
2019-01-12T13:27:04.004Z,99475.72
2019-01-12T13:29:44.167Z,99400.03
2019-01-12T13:32:24.389Z,99395.73
2019-01-12T13:35:10.572Z,99465.45
2019-01-12T13:37:50.780Z,99438.78
2019-01-12T13:40:37.206Z,99275.04
2019-01-12T13:43:17.565Z,99351.09
2019-01-12T13:45:57.651Z,99429.80
2019-01-12T13:48:37.847Z,99407.86
2019-01-12T13:51:24.052Z,99352.59
2019-01-12T13:54:04.213Z,99394.42
2019-01-12T13:56:50.515Z,99387.10
2019-01-12T13:59:30.484Z,99376.22
2019-01-12T14:02:16.795Z,99374.60
2019-01-12T14:05:18.074Z,99206.63
2019-01-12T14:08:04.864Z,99315.61
2019-01-12T14:10:45.021Z,99396.27
2019-01-12T14:13:31.532Z,99090.06
2019-01-12T14:16:11.300Z,99316.75
2019-01-12T14:18:57.731Z,99186.53
2019-01-12T14:21:37.537Z,99359.85
2019-01-12T14:24:17.772Z,99362.84
2019-01-12T14:27:04.010Z,99282.84
2019-01-12T14:29:44.195Z,99128.00
2019-01-12T14:32:24.313Z,99304.31
2019-01-12T14:38:39.274Z,99370.47
2019-01-12T14:41:25.497Z,99149.07
2019-01-12T14:44:05.096Z,99337.45
2019-01-12T14:46:51.530Z,99116.16
2019-01-12T14:49:32.014Z,99315.86
2019-01-12T14:52:18.494Z,99300.66
2019-01-12T14:54:58.074Z,99330.98
2019-01-12T14:57:44.342Z,99322.63
2019-01-12T15:00:24.754Z,99282.97
2019-01-12T15:03:11.183Z,99215.91
2019-01-12T15:05:51.684Z,99289.61
2019-01-12T15:08:37.891Z,99015.56
2019-01-12T15:11:18.939Z,99232.11
2019-01-12T15:14:05.156Z,99286.14
2019-01-12T15:16:46.021Z,99290.28
2019-01-12T15:19:32.292Z,99289.33
2019-01-12T15:22:12.004Z,99275.33
2019-01-12T15:24:52.187Z,99271.73
2019-01-12T15:27:38.409Z,99046.14
2019-01-12T15:30:19.337Z,99270.78
2019-01-12T15:32:59.689Z,99268.33
2019-01-12T15:35:46.202Z,99266.54
2019-01-12T15:38:25.599Z,99260.16
2019-01-12T15:41:12.107Z,99114.53
2019-01-12T15:43:54.246Z,99238.81
2019-01-12T15:46:40.719Z,99268.09
2019-01-12T15:49:20.014Z,99248.83
2019-01-12T15:52:06.532Z,99026.03
2019-01-12T15:54:46.317Z,99061.89
2019-01-12T15:57:32.496Z,99250.78
2019-01-12T16:00:14.446Z,99167.11
2019-01-12T16:03:00.920Z,99245.03
2019-01-12T16:05:42.077Z,99054.22
2019-01-12T16:08:28.285Z,99218.70
2019-01-12T16:11:08.022Z,99223.05
2019-01-12T16:13:54.487Z,99185.08
2019-01-12T16:16:34.626Z,99214.62
2019-01-12T16:19:21.090Z,99134.29
2019-01-12T16:22:01.890Z,99212.84
2019-01-12T16:24:48.385Z,99189.25
2019-01-12T16:27:27.899Z,99089.85
2019-01-12T16:30:36.239Z,99163.95
2019-01-12T16:33:16.924Z,99150.23
2019-01-12T16:35:56.741Z,98930.12
2019-01-12T16:38:42.951Z,99166.28
2019-01-12T16:41:23.093Z,99151.93
2019-01-12T16:44:09.621Z,99155.65
2019-01-12T16:46:51.191Z,99047.22
2019-01-12T16:49:37.680Z,99137.75
2019-01-12T16:52:17.151Z,98960.91
2019-01-12T16:55:25.161Z,99097.09
2019-01-12T16:58:04.768Z,99118.75
2019-01-12T17:00:44.730Z,99069.33
2019-01-12T17:03:31.226Z,98910.48
2019-01-12T17:06:12.036Z,99090.78
2019-01-12T17:08:58.536Z,99093.95
2019-01-12T17:11:38.345Z,99051.03
2019-01-12T17:14:24.556Z,98821.66
2019-01-12T17:17:05.483Z,98773.55
2019-01-12T17:20:11.595Z,98809.00
2019-01-12T17:22:52.153Z,99080.50
2019-01-12T17:25:38.384Z,98810.08
2019-01-12T17:28:18.122Z,99029.41
2019-01-12T17:31:04.733Z,98960.51
2019-01-12T17:33:44.591Z,99056.09
2019-01-12T17:36:25.992Z,99056.27
2019-01-12T17:39:12.616Z,99011.17
2019-01-12T17:41:52.279Z,98764.06
2019-01-12T17:44:38.479Z,99053.11
2019-01-12T17:47:18.468Z,98784.21
2019-01-12T17:50:26.464Z,99037.77
2019-01-12T17:53:06.833Z,98768.59
2019-01-12T17:55:53.329Z,99026.06
2019-01-12T17:58:33.615Z,98746.14
2019-01-12T18:01:20.097Z,99026.48
2019-01-12T18:04:01.634Z,98733.70
2019-01-12T18:06:42.424Z,99008.58
2019-01-12T18:09:50.683Z,98765.47
2019-01-12T18:12:30.802Z,99017.89
2019-01-12T18:15:17.250Z,99022.22
2019-01-12T18:17:58.690Z,98967.52
2019-01-12T18:20:45.365Z,98732.13
2019-01-12T18:23:24.979Z,99014.92
2019-01-12T18:26:11.207Z,98808.84
2019-01-12T18:28:51.635Z,99008.42
2019-01-12T18:31:32.853Z,99033.84
2019-01-12T18:34:14.619Z,99034.36
2019-01-12T18:36:54.902Z,99050.00
2019-01-12T18:39:41.374Z,99005.77
2019-01-12T18:42:21.342Z,98840.28
2019-01-12T18:45:29.364Z,99007.48
2019-01-12T18:48:09.407Z,98832.46
2019-01-12T18:50:55.856Z,98824.41
2019-01-12T18:53:35.809Z,99013.89
2019-01-12T18:56:22.257Z,98997.42
2019-01-12T18:59:03.371Z,98998.79
2019-01-12T19:01:50.990Z,98775.73
2019-01-12T19:04:30.886Z,98759.16
2019-01-12T19:07:10.989Z,98889.11
2019-01-12T19:09:57.173Z,98981.41
2019-01-12T19:12:37.379Z,98746.58
2019-01-12T19:18:22.933Z,98981.27
2019-01-12T19:21:02.913Z,98991.55
2019-01-12T19:23:49.153Z,98910.52
2019-01-12T19:26:29.895Z,98803.45
2019-01-12T19:29:16.350Z,98778.63
2019-01-12T19:31:57.011Z,98761.80
2019-01-12T19:34:43.467Z,98778.45
2019-01-12T19:37:23.687Z,99010.59
2019-01-12T19:43:02.947Z,98974.84
2019-01-12T19:45:44.377Z,98991.83
2019-01-12T19:48:24.814Z,98970.08
2019-01-12T19:51:11.284Z,98883.13
2019-01-12T19:53:51.037Z,98755.30
2019-01-12T19:56:37.221Z,98751.08
2019-01-12T19:59:18.287Z,98993.93
2019-01-12T20:02:06.497Z,98906.44
2019-01-12T20:04:47.446Z,98757.46
2019-01-12T20:07:33.776Z,98751.43
2019-01-12T20:10:16.656Z,98828.39
2019-01-12T20:12:58.894Z,98978.48
2019-01-12T20:15:45.205Z,98683.69
2019-01-12T20:18:25.479Z,98740.24
2019-01-12T20:21:11.934Z,98988.83
2019-01-12T20:23:54.149Z,98838.98
2019-01-12T20:26:40.387Z,98993.47
2019-01-12T20:29:21.252Z,98994.53
2019-01-12T20:32:22.836Z,98707.80
2019-01-12T20:35:31.052Z,98752.52
2019-01-12T20:38:13.864Z,98981.73
2019-01-12T20:41:21.849Z,98851.86
2019-01-12T20:44:22.749Z,98736.29
2019-01-12T20:47:30.989Z,98777.38
2019-01-12T20:50:16.318Z,98946.22
2019-01-12T20:53:24.572Z,98866.77
2019-01-12T20:56:06.404Z,98936.18
2019-01-12T20:59:14.727Z,98830.75
2019-01-12T21:02:15.675Z,98941.98
2019-01-12T21:05:00.926Z,98871.09
2019-01-12T21:08:08.998Z,98771.16
2019-01-12T21:10:51.654Z,98950.03
2019-01-12T21:14:17.599Z,98841.30
2019-01-12T21:16:58.266Z,98932.45
2019-01-12T21:19:48.435Z,98938.41
2019-01-12T21:22:33.532Z,98918.48
2019-01-12T21:25:19.750Z,98923.12
2019-01-12T21:28:00.030Z,98916.16
2019-01-12T21:30:46.531Z,98919.48
2019-01-12T21:33:27.544Z,98748.94
2019-01-12T21:36:08.649Z,98818.24
2019-01-12T21:38:49.593Z,98884.88
2019-01-12T21:41:35.825Z,98703.27
2019-01-12T21:44:16.049Z,98746.81
2019-01-12T21:46:55.448Z,98629.27
2019-01-12T21:49:41.887Z,98793.59
2019-01-12T21:52:22.452Z,98715.97
2019-01-12T21:55:09.252Z,98874.66
2019-01-12T21:57:49.910Z,98884.67
2019-01-12T22:00:36.486Z,98881.88
2019-01-12T22:03:16.539Z,98629.89
2019-01-12T22:06:03.006Z,98789.53
2019-01-12T22:08:43.570Z,98891.18
2019-01-12T22:11:30.002Z,98862.27
2019-01-12T22:14:11.944Z,98872.78
2019-01-12T22:16:58.168Z,98864.91
2019-01-12T22:19:38.116Z,98868.67
2019-01-12T22:22:19.567Z,98594.56
2019-01-12T22:25:06.927Z,98669.99
2019-01-12T22:27:47.685Z,98685.02
2019-01-12T22:30:34.297Z,98783.38
2019-01-12T22:33:29.817Z,98862.13
2019-01-12T22:36:16.009Z,98859.81
2019-01-12T22:38:56.716Z,98852.63
2019-01-12T22:41:43.149Z,98847.08
2019-01-12T22:44:23.565Z,98836.06
2019-01-12T22:47:10.107Z,98697.27
2019-01-12T22:49:56.690Z,98575.92
2019-01-12T22:52:36.947Z,98766.12
2019-01-12T22:55:23.146Z,98683.91
2019-01-12T22:58:04.263Z,98697.91
2019-01-12T23:04:21.512Z,98776.40
2019-01-12T23:07:11.588Z,98878.91
2019-01-12T23:10:10.286Z,98767.73
2019-01-12T23:12:56.521Z,98865.60
2019-01-12T23:15:37.337Z,98610.80
2019-01-12T23:18:23.564Z,98629.66
2019-01-12T23:21:03.718Z,98851.39
2019-01-12T23:23:50.474Z,98693.48
2019-01-12T23:26:31.522Z,98712.85
2019-01-12T23:29:17.953Z,98764.81
2019-01-12T23:31:59.117Z,98845.16
2019-01-12T23:34:40.303Z,98617.16
2019-01-12T23:37:20.620Z,98830.57
2019-01-12T23:40:01.039Z,98662.72
2019-01-12T23:42:47.286Z,98749.64
2019-01-12T23:45:26.772Z,98652.45
2019-01-12T23:48:13.430Z,98845.33
2019-01-12T23:50:54.399Z,98838.04
2019-01-12T23:53:34.407Z,98599.03
2019-01-12T23:56:20.902Z,98809.20
2019-01-12T23:59:00.274Z,98690.53
